sensor_id;sensor_type;location;lat;lon;timestamp;temperature;humidity
4429;DHT22;2227;47.810;8.810;2023-06-14T03:45:23;13.00;76.60
4429;DHT22;2227;47.810;8.810;2023-06-14T03:47:50;13.00;76.50
4429;DHT22;2227;47.810;8.810;2023-06-14T03:50:17;13.10;76.30
4429;DHT22;2227;47.810;8.810;2023-06-14T03:52:45;13.20;76.10
4429;DHT22;2227;47.810;8.810;2023-06-14T03:55:11;13.20;75.60
4429;DHT22;2227;47.810;8.810;2023-06-14T03:57:43;13.20;75.40
4429;DHT22;2227;47.810;8.810;2023-06-14T04:00:10;13.30;75.20
4429;DHT22;2227;47.810;8.810;2023-06-14T04:02:38;13.30;75.10
4429;DHT22;2227;47.810;8.810;2023-06-14T04:05:05;13.40;74.80
4429;DHT22;2227;47.810;8.810;2023-06-14T04:07:35;13.50;74.60
4429;DHT22;2227;47.810;8.810;2023-06-14T04:10:07;13.60;74.90
4429;DHT22;2227;47.810;8.810;2023-06-14T04:12:34;13.60;74.90
4429;DHT22;2227;47.810;8.810;2023-06-14T04:15:01;13.60;74.80
4429;DHT22;2227;47.810;8.810;2023-06-14T04:17:45;13.70;75.20
4429;DHT22;2227;47.810;8.810;2023-06-14T04:20:12;13.70;74.80
4429;DHT22;2227;47.810;8.810;2023-06-14T04:22:39;13.80;75.50
4429;DHT22;2227;47.810;8.810;2023-06-14T04:25:07;13.80;76.00
4429;DHT22;2227;47.810;8.810;2023-06-14T04:27:34;13.80;75.70
4429;DHT22;2227;47.810;8.810;2023-06-14T04:30:03;13.80;75.60
4429;DHT22;2227;47.810;8.810;2023-06-14T04:32:31;13.90;75.30
4429;DHT22;2227;47.810;8.810;2023-06-14T04:35:00;14.00;75.20
4429;DHT22;2227;47.810;8.810;2023-06-14T04:37:30;14.00;75.20
4429;DHT22;2227;47.810;8.810;2023-06-14T04:39:57;14.10;75.40
4429;DHT22;2227;47.810;8.810;2023-06-14T04:42:24;14.10;75.40
4429;DHT22;2227;47.810;8.810;2023-06-14T04:44:57;14.20;75.40
4429;DHT22;2227;47.810;8.810;2023-06-14T04:47:25;14.20;75.10
4429;DHT22;2227;47.810;8.810;2023-06-14T04:49:57;14.30;74.90
4429;DHT22;2227;47.810;8.810;2023-06-14T04:52:24;14.30;74.40
4429;DHT22;2227;47.810;8.810;2023-06-14T04:54:53;14.40;74.40
4429;DHT22;2227;47.810;8.810;2023-06-14T04:57:21;14.50;74.10
4429;DHT22;2227;47.810;8.810;2023-06-14T04:59:49;14.60;73.40
4429;DHT22;2227;47.810;8.810;2023-06-14T05:02:25;14.60;73.60
4429;DHT22;2227;47.810;8.810;2023-06-14T05:04:53;14.70;73.70
4429;DHT22;2227;47.810;8.810;2023-06-14T05:07:20;14.70;73.90
4429;DHT22;2227;47.810;8.810;2023-06-14T05:09:50;14.80;72.70
4429;DHT22;2227;47.810;8.810;2023-06-14T05:12:17;14.90;71.80
4429;DHT22;2227;47.810;8.810;2023-06-14T05:14:45;15.00;71.80
4429;DHT22;2227;47.810;8.810;2023-06-14T05:17:12;15.10;72.70
4429;DHT22;2227;47.810;8.810;2023-06-14T05:19:39;15.10;72.50
4429;DHT22;2227;47.810;8.810;2023-06-14T05:22:07;15.20;72.90
4429;DHT22;2227;47.810;8.810;2023-06-14T05:24:34;15.30;72.90
4429;DHT22;2227;47.810;8.810;2023-06-14T05:27:01;15.30;73.80
4429;DHT22;2227;47.810;8.810;2023-06-14T05:29:28;15.40;73.00
4429;DHT22;2227;47.810;8.810;2023-06-14T05:31:56;15.50;72.50
4429;DHT22;2227;47.810;8.810;2023-06-14T05:34:23;15.60;72.20
4429;DHT22;2227;47.810;8.810;2023-06-14T05:36:50;15.70;71.90
4429;DHT22;2227;47.810;8.810;2023-06-14T05:39:17;15.70;71.50
4429;DHT22;2227;47.810;8.810;2023-06-14T05:41:44;15.80;70.40
4429;DHT22;2227;47.810;8.810;2023-06-14T05:44:11;15.90;70.80
4429;DHT22;2227;47.810;8.810;2023-06-14T05:46:38;15.90;71.20
4429;DHT22;2227;47.810;8.810;2023-06-14T05:49:06;16.10;70.40
4429;DHT22;2227;47.810;8.810;2023-06-14T05:51:34;16.20;70.20
4429;DHT22;2227;47.810;8.810;2023-06-14T05:54:01;16.30;70.00
4429;DHT22;2227;47.810;8.810;2023-06-14T05:56:28;16.40;69.60
4429;DHT22;2227;47.810;8.810;2023-06-14T05:58:55;16.40;69.60
4429;DHT22;2227;47.810;8.810;2023-06-14T06:01:21;16.50;69.50
4429;DHT22;2227;47.810;8.810;2023-06-14T06:03:48;16.40;69.40
4429;DHT22;2227;47.810;8.810;2023-06-14T06:06:15;16.60;69.30
4429;DHT22;2227;47.810;8.810;2023-06-14T06:08:43;16.70;69.50
4429;DHT22;2227;47.810;8.810;2023-06-14T06:11:10;16.70;70.00
4429;DHT22;2227;47.810;8.810;2023-06-14T06:13:38;16.90;69.80
4429;DHT22;2227;47.810;8.810;2023-06-14T06:16:06;17.00;69.70
4429;DHT22;2227;47.810;8.810;2023-06-14T06:18:33;17.00;69.40
4429;DHT22;2227;47.810;8.810;2023-06-14T06:21:00;17.20;69.10
4429;DHT22;2227;47.810;8.810;2023-06-14T06:23:27;17.30;69.00
4429;DHT22;2227;47.810;8.810;2023-06-14T06:25:54;17.50;68.90
4429;DHT22;2227;47.810;8.810;2023-06-14T06:28:20;17.60;68.20
4429;DHT22;2227;47.810;8.810;2023-06-14T06:30:47;17.70;68.20
4429;DHT22;2227;47.810;8.810;2023-06-14T06:33:14;17.80;67.90
4429;DHT22;2227;47.810;8.810;2023-06-14T06:35:41;17.80;67.60
4429;DHT22;2227;47.810;8.810;2023-06-14T06:38:09;17.90;67.80
4429;DHT22;2227;47.810;8.810;2023-06-14T06:40:37;18.00;67.20
4429;DHT22;2227;47.810;8.810;2023-06-14T06:43:03;18.20;67.10
4429;DHT22;2227;47.810;8.810;2023-06-14T06:45:30;18.30;67.10
4429;DHT22;2227;47.810;8.810;2023-06-14T06:47:57;18.30;67.40
4429;DHT22;2227;47.810;8.810;2023-06-14T06:50:24;18.50;67.80
4429;DHT22;2227;47.810;8.810;2023-06-14T06:52:51;18.60;67.20
4429;DHT22;2227;47.810;8.810;2023-06-14T06:55:19;18.70;67.50
4429;DHT22;2227;47.810;8.810;2023-06-14T06:57:46;18.80;65.80
4429;DHT22;2227;47.810;8.810;2023-06-14T07:00:13;18.90;65.70
4429;DHT22;2227;47.810;8.810;2023-06-14T07:02:41;19.10;65.40
4429;DHT22;2227;47.810;8.810;2023-06-14T07:05:09;19.20;63.90
4429;DHT22;2227;47.810;8.810;2023-06-14T07:07:35;19.20;64.10
4429;DHT22;2227;47.810;8.810;2023-06-14T07:10:03;19.20;64.50
4429;DHT22;2227;47.810;8.810;2023-06-14T07:12:32;19.30;63.50
4429;DHT22;2227;47.810;8.810;2023-06-14T07:15:01;19.40;62.90
4429;DHT22;2227;47.810;8.810;2023-06-14T07:17:27;19.60;61.90
4429;DHT22;2227;47.810;8.810;2023-06-14T07:19:54;19.80;61.20
4429;DHT22;2227;47.810;8.810;2023-06-14T07:22:21;19.90;61.40
4429;DHT22;2227;47.810;8.810;2023-06-14T07:24:48;20.00;61.80
4429;DHT22;2227;47.810;8.810;2023-06-14T07:27:15;20.10;60.20
4429;DHT22;2227;47.810;8.810;2023-06-14T07:29:42;20.30;60.00
4429;DHT22;2227;47.810;8.810;2023-06-14T07:32:09;20.30;60.00
4429;DHT22;2227;47.810;8.810;2023-06-14T07:34:35;20.50;59.90
4429;DHT22;2227;47.810;8.810;2023-06-14T07:37:02;20.60;60.00
4429;DHT22;2227;47.810;8.810;2023-06-14T07:39:29;20.80;58.40
4429;DHT22;2227;47.810;8.810;2023-06-14T07:41:56;20.90;57.20
4429;DHT22;2227;47.810;8.810;2023-06-14T07:44:23;20.90;57.80
4429;DHT22;2227;47.810;8.810;2023-06-14T07:46:49;21.10;57.60
4429;DHT22;2227;47.810;8.810;2023-06-14T07:49:16;21.10;58.40
4429;DHT22;2227;47.810;8.810;2023-06-14T07:51:43;21.20;57.70
4429;DHT22;2227;47.810;8.810;2023-06-14T07:54:11;21.20;57.80
4429;DHT22;2227;47.810;8.810;2023-06-14T07:56:38;21.40;57.20
4429;DHT22;2227;47.810;8.810;2023-06-14T07:59:05;21.40;57.40
4429;DHT22;2227;47.810;8.810;2023-06-14T08:01:32;21.50;57.30
4429;DHT22;2227;47.810;8.810;2023-06-14T08:03:59;21.70;57.50
4429;DHT22;2227;47.810;8.810;2023-06-14T08:06:27;21.80;57.50
4429;DHT22;2227;47.810;8.810;2023-06-14T08:08:54;21.80;56.90
4429;DHT22;2227;47.810;8.810;2023-06-14T08:11:20;22.00;56.70
4429;DHT22;2227;47.810;8.810;2023-06-14T08:13:47;22.10;56.60
4429;DHT22;2227;47.810;8.810;2023-06-14T08:16:14;22.20;55.30
4429;DHT22;2227;47.810;8.810;2023-06-14T08:18:41;22.20;54.90
4429;DHT22;2227;47.810;8.810;2023-06-14T08:21:07;22.30;55.40
4429;DHT22;2227;47.810;8.810;2023-06-14T08:23:35;22.40;54.80
4429;DHT22;2227;47.810;8.810;2023-06-14T08:26:02;22.60;54.60
4429;DHT22;2227;47.810;8.810;2023-06-14T08:28:30;22.60;53.90
4429;DHT22;2227;47.810;8.810;2023-06-14T08:30:57;22.60;53.90
4429;DHT22;2227;47.810;8.810;2023-06-14T08:33:24;22.80;54.00
4429;DHT22;2227;47.810;8.810;2023-06-14T08:35:51;22.80;53.90
4429;DHT22;2227;47.810;8.810;2023-06-14T08:38:18;23.00;52.80
4429;DHT22;2227;47.810;8.810;2023-06-14T08:40:48;23.10;53.00
4429;DHT22;2227;47.810;8.810;2023-06-14T08:43:17;23.30;53.90
4429;DHT22;2227;47.810;8.810;2023-06-14T08:45:45;23.50;52.50
4429;DHT22;2227;47.810;8.810;2023-06-14T08:48:13;23.60;51.00
4429;DHT22;2227;47.810;8.810;2023-06-14T08:50:45;23.60;50.60
4429;DHT22;2227;47.810;8.810;2023-06-14T08:53:14;23.60;50.40
4429;DHT22;2227;47.810;8.810;2023-06-14T08:55:46;23.50;49.60
4429;DHT22;2227;47.810;8.810;2023-06-14T08:58:14;23.60;49.90
4429;DHT22;2227;47.810;8.810;2023-06-14T09:00:42;23.80;50.00
4429;DHT22;2227;47.810;8.810;2023-06-14T09:03:09;23.90;49.30
4429;DHT22;2227;47.810;8.810;2023-06-14T09:05:39;23.90;49.60
4429;DHT22;2227;47.810;8.810;2023-06-14T09:08:06;24.00;49.50
4429;DHT22;2227;47.810;8.810;2023-06-14T09:10:33;24.10;49.20
4429;DHT22;2227;47.810;8.810;2023-06-14T09:13:02;24.20;49.50
4429;DHT22;2227;47.810;8.810;2023-06-14T09:15:30;24.30;48.50
4429;DHT22;2227;47.810;8.810;2023-06-14T09:17:57;24.30;48.50
4429;DHT22;2227;47.810;8.810;2023-06-14T09:20:24;24.50;47.70
4429;DHT22;2227;47.810;8.810;2023-06-14T09:22:53;24.60;48.00
4429;DHT22;2227;47.810;8.810;2023-06-14T09:25:20;24.70;47.70
4429;DHT22;2227;47.810;8.810;2023-06-14T09:28:07;24.90;48.20
4429;DHT22;2227;47.810;8.810;2023-06-14T09:30:36;24.90;48.20
4429;DHT22;2227;47.810;8.810;2023-06-14T09:33:03;24.90;47.60
4429;DHT22;2227;47.810;8.810;2023-06-14T09:35:31;25.00;47.40
4429;DHT22;2227;47.810;8.810;2023-06-14T09:37:58;25.20;47.70
4429;DHT22;2227;47.810;8.810;2023-06-14T09:40:27;25.40;46.60
4429;DHT22;2227;47.810;8.810;2023-06-14T09:42:54;25.50;46.60
4429;DHT22;2227;47.810;8.810;2023-06-14T09:45:25;25.70;46.70
4429;DHT22;2227;47.810;8.810;2023-06-14T09:47:57;25.70;46.40
4429;DHT22;2227;47.810;8.810;2023-06-14T09:50:34;25.80;47.20
4429;DHT22;2227;47.810;8.810;2023-06-14T09:53:11;26.20;46.20
4429;DHT22;2227;47.810;8.810;2023-06-14T09:55:40;26.40;45.80
4429;DHT22;2227;47.810;8.810;2023-06-14T09:58:08;26.30;45.80
4429;DHT22;2227;47.810;8.810;2023-06-14T10:00:36;26.40;45.60
4429;DHT22;2227;47.810;8.810;2023-06-14T10:05:37;26.60;44.20
4429;DHT22;2227;47.810;8.810;2023-06-14T10:08:07;26.60;45.00
4429;DHT22;2227;47.810;8.810;2023-06-14T10:10:34;26.60;43.80
4429;DHT22;2227;47.810;8.810;2023-06-14T10:13:01;26.40;44.40
4429;DHT22;2227;47.810;8.810;2023-06-14T10:15:35;26.30;44.70
4429;DHT22;2227;47.810;8.810;2023-06-14T10:18:28;26.60;44.70
4429;DHT22;2227;47.810;8.810;2023-06-14T10:21:18;26.70;43.70
4429;DHT22;2227;47.810;8.810;2023-06-14T10:23:48;26.80;44.00
4429;DHT22;2227;47.810;8.810;2023-06-14T10:26:21;26.80;43.80
4429;DHT22;2227;47.810;8.810;2023-06-14T10:31:43;26.90;43.00
4429;DHT22;2227;47.810;8.810;2023-06-14T10:34:11;27.10;42.90
4429;DHT22;2227;47.810;8.810;2023-06-14T10:36:42;27.00;42.70
4429;DHT22;2227;47.810;8.810;2023-06-14T10:39:19;26.70;43.50
4429;DHT22;2227;47.810;8.810;2023-06-14T10:41:54;26.90;42.50
4429;DHT22;2227;47.810;8.810;2023-06-14T10:46:49;27.10;43.00
4429;DHT22;2227;47.810;8.810;2023-06-14T10:49:17;27.40;42.50
4429;DHT22;2227;47.810;8.810;2023-06-14T10:51:50;27.40;41.40
4429;DHT22;2227;47.810;8.810;2023-06-14T10:54:21;27.30;41.80
4429;DHT22;2227;47.810;8.810;2023-06-14T10:56:52;27.30;41.80
4429;DHT22;2227;47.810;8.810;2023-06-14T10:59:20;27.30;41.70
4429;DHT22;2227;47.810;8.810;2023-06-14T11:04:59;27.10;43.40
4429;DHT22;2227;47.810;8.810;2023-06-14T11:07:42;27.30;42.60
4429;DHT22;2227;47.810;8.810;2023-06-14T11:12:50;27.70;42.00
4429;DHT22;2227;47.810;8.810;2023-06-14T11:15:18;27.50;41.50
4429;DHT22;2227;47.810;8.810;2023-06-14T11:17:51;27.60;41.00
4429;DHT22;2227;47.810;8.810;2023-06-14T11:20:20;27.80;41.60
4429;DHT22;2227;47.810;8.810;2023-06-14T11:22:50;27.80;41.00
4429;DHT22;2227;47.810;8.810;2023-06-14T11:25:17;27.80;41.30
4429;DHT22;2227;47.810;8.810;2023-06-14T11:27:45;28.00;41.30
4429;DHT22;2227;47.810;8.810;2023-06-14T11:30:13;28.00;42.00
4429;DHT22;2227;47.810;8.810;2023-06-14T11:32:40;28.20;40.60
4429;DHT22;2227;47.810;8.810;2023-06-14T11:35:08;28.30;40.40
4429;DHT22;2227;47.810;8.810;2023-06-14T11:37:36;27.90;40.70
4429;DHT22;2227;47.810;8.810;2023-06-14T11:40:07;27.80;41.60
4429;DHT22;2227;47.810;8.810;2023-06-14T11:42:36;28.00;41.30
4429;DHT22;2227;47.810;8.810;2023-06-14T11:45:08;28.10;41.40
4429;DHT22;2227;47.810;8.810;2023-06-14T11:47:37;28.00;40.20
4429;DHT22;2227;47.810;8.810;2023-06-14T11:50:07;27.50;41.20
4429;DHT22;2227;47.810;8.810;2023-06-14T11:52:36;27.50;41.30
4429;DHT22;2227;47.810;8.810;2023-06-14T11:55:04;27.50;41.50
4429;DHT22;2227;47.810;8.810;2023-06-14T11:57:35;27.50;42.00
4429;DHT22;2227;47.810;8.810;2023-06-14T12:00:09;27.50;43.00
4429;DHT22;2227;47.810;8.810;2023-06-14T12:02:39;27.70;41.60
4429;DHT22;2227;47.810;8.810;2023-06-14T12:05:08;27.40;41.10
4429;DHT22;2227;47.810;8.810;2023-06-14T12:07:37;27.10;42.80
4429;DHT22;2227;47.810;8.810;2023-06-14T12:10:07;27.30;42.90
4429;DHT22;2227;47.810;8.810;2023-06-14T12:12:39;27.60;43.50
4429;DHT22;2227;47.810;8.810;2023-06-14T12:15:08;27.90;42.00
4429;DHT22;2227;47.810;8.810;2023-06-14T12:17:36;28.00;42.20
4429;DHT22;2227;47.810;8.810;2023-06-14T12:20:06;28.10;41.80
4429;DHT22;2227;47.810;8.810;2023-06-14T12:22:58;28.30;41.30
4429;DHT22;2227;47.810;8.810;2023-06-14T12:25:32;28.10;41.60
4429;DHT22;2227;47.810;8.810;2023-06-14T12:28:09;28.30;41.40
4429;DHT22;2227;47.810;8.810;2023-06-14T12:30:37;28.40;41.30
4429;DHT22;2227;47.810;8.810;2023-06-14T12:33:05;28.60;40.90
4429;DHT22;2227;47.810;8.810;2023-06-14T12:35:32;28.60;41.50
4429;DHT22;2227;47.810;8.810;2023-06-14T12:37:59;28.60;40.90
4429;DHT22;2227;47.810;8.810;2023-06-14T12:40:27;28.40;40.70
4429;DHT22;2227;47.810;8.810;2023-06-14T12:42:53;28.10;41.50
4429;DHT22;2227;47.810;8.810;2023-06-14T12:45:20;28.20;41.70
4429;DHT22;2227;47.810;8.810;2023-06-14T12:47:47;28.40;41.80
4429;DHT22;2227;47.810;8.810;2023-06-14T12:50:14;28.20;41.30
4429;DHT22;2227;47.810;8.810;2023-06-14T12:52:47;28.40;41.00
4429;DHT22;2227;47.810;8.810;2023-06-14T12:55:14;28.00;41.00
4429;DHT22;2227;47.810;8.810;2023-06-14T12:57:41;27.80;42.60
4429;DHT22;2227;47.810;8.810;2023-06-14T13:00:08;28.10;42.40
4429;DHT22;2227;47.810;8.810;2023-06-14T13:02:35;28.40;41.60
4429;DHT22;2227;47.810;8.810;2023-06-14T13:05:02;28.60;41.20
4429;DHT22;2227;47.810;8.810;2023-06-14T13:07:30;29.00;41.10
4429;DHT22;2227;47.810;8.810;2023-06-14T13:09:57;29.20;40.90
4429;DHT22;2227;47.810;8.810;2023-06-14T13:12:24;29.30;40.80
4429;DHT22;2227;47.810;8.810;2023-06-14T13:14:50;29.60;41.00
4429;DHT22;2227;47.810;8.810;2023-06-14T13:17:17;29.70;40.00
4429;DHT22;2227;47.810;8.810;2023-06-14T13:19:44;29.90;39.80
4429;DHT22;2227;47.810;8.810;2023-06-14T13:22:11;30.20;40.10
4429;DHT22;2227;47.810;8.810;2023-06-14T13:24:37;30.30;40.60
4429;DHT22;2227;47.810;8.810;2023-06-14T13:27:04;30.40;39.40
4429;DHT22;2227;47.810;8.810;2023-06-14T13:29:32;29.60;39.60
4429;DHT22;2227;47.810;8.810;2023-06-14T13:32:03;29.20;40.30
4429;DHT22;2227;47.810;8.810;2023-06-14T13:34:30;29.30;40.50
4429;DHT22;2227;47.810;8.810;2023-06-14T13:36:56;29.00;40.90
4429;DHT22;2227;47.810;8.810;2023-06-14T13:39:25;29.20;41.00
4429;DHT22;2227;47.810;8.810;2023-06-14T13:41:52;29.10;40.70
4429;DHT22;2227;47.810;8.810;2023-06-14T13:44:19;28.90;41.60
4429;DHT22;2227;47.810;8.810;2023-06-14T13:47:05;28.70;42.10
4429;DHT22;2227;47.810;8.810;2023-06-14T13:49:32;28.70;42.50
4429;DHT22;2227;47.810;8.810;2023-06-14T13:52:01;28.70;42.70
4429;DHT22;2227;47.810;8.810;2023-06-14T13:54:29;28.60;42.50
4429;DHT22;2227;47.810;8.810;2023-06-14T13:56:56;28.50;42.40
4429;DHT22;2227;47.810;8.810;2023-06-14T13:59:22;28.60;42.20
4429;DHT22;2227;47.810;8.810;2023-06-14T14:02:07;28.90;42.20
4429;DHT22;2227;47.810;8.810;2023-06-14T14:04:52;29.20;40.90
4429;DHT22;2227;47.810;8.810;2023-06-14T14:07:20;29.50;40.50
4429;DHT22;2227;47.810;8.810;2023-06-14T14:09:47;29.50;40.80
4429;DHT22;2227;47.810;8.810;2023-06-14T14:12:14;29.90;41.00
4429;DHT22;2227;47.810;8.810;2023-06-14T14:14:41;30.20;41.40
4429;DHT22;2227;47.810;8.810;2023-06-14T14:17:25;30.50;40.30
4429;DHT22;2227;47.810;8.810;2023-06-14T14:19:53;30.30;40.10
4429;DHT22;2227;47.810;8.810;2023-06-14T14:22:37;30.20;40.10
4429;DHT22;2227;47.810;8.810;2023-06-14T14:25:03;30.20;40.80
4429;DHT22;2227;47.810;8.810;2023-06-14T14:27:48;30.20;40.90
4429;DHT22;2227;47.810;8.810;2023-06-14T14:30:32;30.00;41.10
4429;DHT22;2227;47.810;8.810;2023-06-14T14:32:59;29.80;41.10
4429;DHT22;2227;47.810;8.810;2023-06-14T14:35:26;29.80;41.20
4429;DHT22;2227;47.810;8.810;2023-06-14T14:37:57;30.10;41.10
4429;DHT22;2227;47.810;8.810;2023-06-14T14:40:23;30.20;40.20
4429;DHT22;2227;47.810;8.810;2023-06-14T14:42:50;30.10;39.60
4429;DHT22;2227;47.810;8.810;2023-06-14T14:45:17;29.90;41.20
4429;DHT22;2227;47.810;8.810;2023-06-14T14:47:44;29.90;41.30
4429;DHT22;2227;47.810;8.810;2023-06-14T14:50:11;30.00;40.40
4429;DHT22;2227;47.810;8.810;2023-06-14T14:52:38;30.00;40.90
4429;DHT22;2227;47.810;8.810;2023-06-14T14:55:05;30.20;40.70
4429;DHT22;2227;47.810;8.810;2023-06-14T14:57:32;30.20;41.10
4429;DHT22;2227;47.810;8.810;2023-06-14T14:59:59;29.80;40.70
4429;DHT22;2227;47.810;8.810;2023-06-14T15:02:25;29.70;41.40
4429;DHT22;2227;47.810;8.810;2023-06-14T15:04:52;29.60;41.90
4429;DHT22;2227;47.810;8.810;2023-06-14T15:07:20;29.50;41.50
4429;DHT22;2227;47.810;8.810;2023-06-14T15:09:46;29.20;41.40
4429;DHT22;2227;47.810;8.810;2023-06-14T15:12:17;29.10;42.10
4429;DHT22;2227;47.810;8.810;2023-06-14T15:14:43;29.10;42.40
4429;DHT22;2227;47.810;8.810;2023-06-14T15:17:10;29.00;42.20
4429;DHT22;2227;47.810;8.810;2023-06-14T15:19:37;29.00;41.80
4429;DHT22;2227;47.810;8.810;2023-06-14T15:22:04;28.80;41.60
4429;DHT22;2227;47.810;8.810;2023-06-14T15:24:32;28.90;41.60
4429;DHT22;2227;47.810;8.810;2023-06-14T15:27:09;28.80;42.70
4429;DHT22;2227;47.810;8.810;2023-06-14T15:29:37;28.70;42.80
4429;DHT22;2227;47.810;8.810;2023-06-14T15:32:06;28.60;42.30
4429;DHT22;2227;47.810;8.810;2023-06-14T15:34:33;28.60;41.70
4429;DHT22;2227;47.810;8.810;2023-06-14T15:36:59;28.60;41.90
4429;DHT22;2227;47.810;8.810;2023-06-14T15:39:26;28.70;42.20
4429;DHT22;2227;47.810;8.810;2023-06-14T15:41:53;28.70;42.40
4429;DHT22;2227;47.810;8.810;2023-06-14T15:44:20;28.80;43.00
4429;DHT22;2227;47.810;8.810;2023-06-14T15:46:47;28.80;42.90
4429;DHT22;2227;47.810;8.810;2023-06-14T15:49:17;28.60;42.30
4429;DHT22;2227;47.810;8.810;2023-06-14T15:51:44;28.60;42.20
4429;DHT22;2227;47.810;8.810;2023-06-14T15:54:11;28.40;43.40
4429;DHT22;2227;47.810;8.810;2023-06-14T15:56:38;28.40;44.20
4429;DHT22;2227;47.810;8.810;2023-06-14T15:59:04;28.40;43.70
4429;DHT22;2227;47.810;8.810;2023-06-14T16:01:33;28.20;42.90
4429;DHT22;2227;47.810;8.810;2023-06-14T16:04:00;28.10;43.80
4429;DHT22;2227;47.810;8.810;2023-06-14T16:06:27;28.00;44.20
4429;DHT22;2227;47.810;8.810;2023-06-14T16:08:54;28.10;44.10
4429;DHT22;2227;47.810;8.810;2023-06-14T16:11:21;28.10;44.00
4429;DHT22;2227;47.810;8.810;2023-06-14T16:13:47;28.00;44.20
4429;DHT22;2227;47.810;8.810;2023-06-14T16:16:14;28.00;44.00
4429;DHT22;2227;47.810;8.810;2023-06-14T16:18:41;28.00;44.20
4429;DHT22;2227;47.810;8.810;2023-06-14T16:21:07;28.00;44.30
4429;DHT22;2227;47.810;8.810;2023-06-14T16:23:36;28.00;43.60
4429;DHT22;2227;47.810;8.810;2023-06-14T16:26:04;27.80;43.20
4429;DHT22;2227;47.810;8.810;2023-06-14T16:28:31;27.70;43.10
4429;DHT22;2227;47.810;8.810;2023-06-14T16:31:01;27.70;43.30
4429;DHT22;2227;47.810;8.810;2023-06-14T16:33:27;27.60;43.80
4429;DHT22;2227;47.810;8.810;2023-06-14T16:35:54;27.50;44.20
4429;DHT22;2227;47.810;8.810;2023-06-14T16:38:21;27.50;44.70
4429;DHT22;2227;47.810;8.810;2023-06-14T16:40:48;27.50;44.50
4429;DHT22;2227;47.810;8.810;2023-06-14T16:43:15;27.60;43.70
4429;DHT22;2227;47.810;8.810;2023-06-14T16:45:42;27.60;44.50
4429;DHT22;2227;47.810;8.810;2023-06-14T16:48:09;27.60;44.30
4429;DHT22;2227;47.810;8.810;2023-06-14T16:50:36;27.60;44.60
4429;DHT22;2227;47.810;8.810;2023-06-14T16:53:03;27.70;43.80
4429;DHT22;2227;47.810;8.810;2023-06-14T16:55:30;27.70;43.60
4429;DHT22;2227;47.810;8.810;2023-06-14T16:57:58;27.80;43.50
4429;DHT22;2227;47.810;8.810;2023-06-14T17:00:25;27.70;44.30
4429;DHT22;2227;47.810;8.810;2023-06-14T17:02:53;27.50;43.90
4429;DHT22;2227;47.810;8.810;2023-06-14T17:05:21;27.30;44.00
4429;DHT22;2227;47.810;8.810;2023-06-14T17:07:48;27.20;44.60
4429;DHT22;2227;47.810;8.810;2023-06-14T17:10:15;27.20;44.70
4429;DHT22;2227;47.810;8.810;2023-06-14T17:12:42;27.10;45.10
4429;DHT22;2227;47.810;8.810;2023-06-14T17:15:09;27.00;45.20
4429;DHT22;2227;47.810;8.810;2023-06-14T17:17:36;27.00;45.50
4429;DHT22;2227;47.810;8.810;2023-06-14T17:20:04;27.00;45.60
4429;DHT22;2227;47.810;8.810;2023-06-14T17:22:31;26.90;46.00
4429;DHT22;2227;47.810;8.810;2023-06-14T17:24:58;26.90;46.00
4429;DHT22;2227;47.810;8.810;2023-06-14T17:27:25;26.80;46.00
4429;DHT22;2227;47.810;8.810;2023-06-14T17:29:51;26.60;45.80
4429;DHT22;2227;47.810;8.810;2023-06-14T17:32:19;26.50;46.00
4429;DHT22;2227;47.810;8.810;2023-06-14T17:34:45;26.40;46.00
4429;DHT22;2227;47.810;8.810;2023-06-14T17:37:12;26.30;46.00
4429;DHT22;2227;47.810;8.810;2023-06-14T17:39:39;26.30;46.00
4429;DHT22;2227;47.810;8.810;2023-06-14T17:42:07;26.30;45.30
4429;DHT22;2227;47.810;8.810;2023-06-14T17:44:35;26.20;45.60
4429;DHT22;2227;47.810;8.810;2023-06-14T17:47:02;26.10;46.10
4429;DHT22;2227;47.810;8.810;2023-06-14T17:49:28;26.00;46.90
4429;DHT22;2227;47.810;8.810;2023-06-14T17:51:55;26.00;47.90
4429;DHT22;2227;47.810;8.810;2023-06-14T17:54:22;26.00;48.40
4429;DHT22;2227;47.810;8.810;2023-06-14T17:56:48;25.80;48.10
4429;DHT22;2227;47.810;8.810;2023-06-14T17:59:16;25.90;48.40
4429;DHT22;2227;47.810;8.810;2023-06-14T18:01:43;25.80;48.40
4429;DHT22;2227;47.810;8.810;2023-06-14T18:04:10;25.60;48.80
4429;DHT22;2227;47.810;8.810;2023-06-14T18:06:36;25.50;48.90
4429;DHT22;2227;47.810;8.810;2023-06-14T18:09:03;25.50;49.30
4429;DHT22;2227;47.810;8.810;2023-06-14T18:11:30;25.30;49.50
4429;DHT22;2227;47.810;8.810;2023-06-14T18:13:59;25.20;49.80
4429;DHT22;2227;47.810;8.810;2023-06-14T18:16:26;25.10;50.10
4429;DHT22;2227;47.810;8.810;2023-06-14T18:18:53;25.00;50.40
4429;DHT22;2227;47.810;8.810;2023-06-14T18:21:20;25.00;50.30
4429;DHT22;2227;47.810;8.810;2023-06-14T18:23:48;24.90;50.60
4429;DHT22;2227;47.810;8.810;2023-06-14T18:26:24;25.00;50.80
4429;DHT22;2227;47.810;8.810;2023-06-14T18:28:53;24.90;50.80
4429;DHT22;2227;47.810;8.810;2023-06-14T18:31:20;24.90;50.90
4429;DHT22;2227;47.810;8.810;2023-06-14T18:33:47;24.80;51.00
4429;DHT22;2227;47.810;8.810;2023-06-14T18:36:14;24.70;50.90
4429;DHT22;2227;47.810;8.810;2023-06-14T18:38:41;24.70;51.20
4429;DHT22;2227;47.810;8.810;2023-06-14T18:41:07;24.60;51.10
4429;DHT22;2227;47.810;8.810;2023-06-14T18:43:34;24.50;51.40
4429;DHT22;2227;47.810;8.810;2023-06-14T18:46:01;24.40;51.60
4429;DHT22;2227;47.810;8.810;2023-06-14T18:48:28;24.40;51.70
4429;DHT22;2227;47.810;8.810;2023-06-14T18:50:55;24.40;51.60
4429;DHT22;2227;47.810;8.810;2023-06-14T18:53:22;24.30;51.70
4429;DHT22;2227;47.810;8.810;2023-06-14T18:55:49;24.20;51.70
4429;DHT22;2227;47.810;8.810;2023-06-14T18:58:16;24.20;51.90
4429;DHT22;2227;47.810;8.810;2023-06-14T19:00:44;24.10;52.00
4429;DHT22;2227;47.810;8.810;2023-06-14T19:03:11;24.00;52.40
4429;DHT22;2227;47.810;8.810;2023-06-14T19:05:39;23.90;52.50
4429;DHT22;2227;47.810;8.810;2023-06-14T19:08:05;23.80;52.70
4429;DHT22;2227;47.810;8.810;2023-06-14T19:10:32;23.70;52.90
4429;DHT22;2227;47.810;8.810;2023-06-14T19:12:59;23.60;53.20
4429;DHT22;2227;47.810;8.810;2023-06-14T19:15:26;23.40;53.40
4429;DHT22;2227;47.810;8.810;2023-06-14T19:17:58;23.30;53.70
4429;DHT22;2227;47.810;8.810;2023-06-14T19:20:26;23.30;54.00
4429;DHT22;2227;47.810;8.810;2023-06-14T19:22:54;23.20;54.10
4429;DHT22;2227;47.810;8.810;2023-06-14T19:25:20;23.10;54.40
4429;DHT22;2227;47.810;8.810;2023-06-14T19:27:47;23.10;54.20
4429;DHT22;2227;47.810;8.810;2023-06-14T19:30:14;23.00;55.20
4429;DHT22;2227;47.810;8.810;2023-06-14T19:32:41;22.90;55.80
4429;DHT22;2227;47.810;8.810;2023-06-14T19:35:08;22.80;56.10
4429;DHT22;2227;47.810;8.810;2023-06-14T19:37:36;22.70;56.30
4429;DHT22;2227;47.810;8.810;2023-06-14T19:40:06;22.50;56.80
4429;DHT22;2227;47.810;8.810;2023-06-14T19:42:33;22.40;57.20
4429;DHT22;2227;47.810;8.810;2023-06-14T19:45:00;22.20;57.40
4429;DHT22;2227;47.810;8.810;2023-06-14T19:47:27;22.10;57.80
4429;DHT22;2227;47.810;8.810;2023-06-14T19:49:54;22.00;57.80
4429;DHT22;2227;47.810;8.810;2023-06-14T19:52:21;21.80;58.40
4429;DHT22;2227;47.810;8.810;2023-06-14T19:54:50;21.70;58.70
4429;DHT22;2227;47.810;8.810;2023-06-14T19:57:16;21.50;58.90
4429;DHT22;2227;47.810;8.810;2023-06-14T19:59:43;21.30;58.90
4429;DHT22;2227;47.810;8.810;2023-06-14T20:02:11;21.10;59.20
4429;DHT22;2227;47.810;8.810;2023-06-14T20:04:37;21.00;59.80
4429;DHT22;2227;47.810;8.810;2023-06-14T20:07:04;20.80;60.00